sensor_id;sensor_type;location;lat;lon;timestamp;P1;durP1;ratioP1;P2;durP2;ratioP2
76063;SDS011;64762;52.006;8.424;2022-12-29T00:01:42;2.20;;;0.93;;
76063;SDS011;64762;52.006;8.424;2022-12-29T00:04:09;2.67;;;0.90;;
76063;SDS011;64762;52.006;8.424;2022-12-29T00:06:36;1.77;;;0.80;;
76063;SDS011;64762;52.006;8.424;2022-12-29T00:09:01;2.10;;;0.83;;
76063;SDS011;64762;52.006;8.424;2022-12-29T00:11:27;3.23;;;1.17;;
76063;SDS011;64762;52.006;8.424;2022-12-29T00:13:53;2.73;;;0.83;;
76063;SDS011;64762;52.006;8.424;2022-12-29T00:16:37;2.47;;;1.10;;
76063;SDS011;64762;52.006;8.424;2022-12-29T00:19:03;2.33;;;1.13;;
76063;SDS011;64762;52.006;8.424;2022-12-29T00:21:29;2.58;;;0.85;;
76063;SDS011;64762;52.006;8.424;2022-12-29T00:24:17;1.85;;;0.70;;
76063;SDS011;64762;52.006;8.424;2022-12-29T00:26:47;1.85;;;0.70;;
76063;SDS011;64762;52.006;8.424;2022-12-29T00:29:32;1.65;;;0.80;;
76063;SDS011;64762;52.006;8.424;2022-12-29T00:32:16;4.60;;;1.00;;
76063;SDS011;64762;52.006;8.424;2022-12-29T00:35:00;2.53;;;0.98;;
76063;SDS011;64762;52.006;8.424;2022-12-29T00:37:38;2.22;;;0.85;;
76063;SDS011;64762;52.006;8.424;2022-12-29T00:40:24;2.20;;;1.00;;
76063;SDS011;64762;52.006;8.424;2022-12-29T00:43:08;3.15;;;1.40;;
76063;SDS011;64762;52.006;8.424;2022-12-29T00:45:52;3.05;;;1.00;;
76063;SDS011;64762;52.006;8.424;2022-12-29T00:48:17;3.70;;;1.20;;
76063;SDS011;64762;52.006;8.424;2022-12-29T00:51:01;2.42;;;0.90;;
76063;SDS011;64762;52.006;8.424;2022-12-29T00:53:26;2.70;;;1.17;;
76063;SDS011;64762;52.006;8.424;2022-12-29T00:55:52;2.80;;;1.20;;
76063;SDS011;64762;52.006;8.424;2022-12-29T00:58:17;2.53;;;1.03;;
76063;SDS011;64762;52.006;8.424;2022-12-29T01:00:42;3.80;;;1.30;;
76063;SDS011;64762;52.006;8.424;2022-12-29T01:03:08;4.67;;;1.13;;
76063;SDS011;64762;52.006;8.424;2022-12-29T01:05:35;2.53;;;1.00;;
76063;SDS011;64762;52.006;8.424;2022-12-29T01:08:01;1.98;;;0.80;;
76063;SDS011;64762;52.006;8.424;2022-12-29T01:10:26;1.77;;;0.70;;
76063;SDS011;64762;52.006;8.424;2022-12-29T01:12:51;2.57;;;1.00;;
76063;SDS011;64762;52.006;8.424;2022-12-29T01:15:17;2.40;;;1.00;;
76063;SDS011;64762;52.006;8.424;2022-12-29T01:17:42;2.10;;;0.90;;
76063;SDS011;64762;52.006;8.424;2022-12-29T01:20:08;2.83;;;0.97;;
76063;SDS011;64762;52.006;8.424;2022-12-29T01:22:33;3.42;;;1.20;;
76063;SDS011;64762;52.006;8.424;2022-12-29T01:24:58;1.97;;;0.90;;
76063;SDS011;64762;52.006;8.424;2022-12-29T01:27:24;1.67;;;0.70;;
76063;SDS011;64762;52.006;8.424;2022-12-29T01:29:49;1.93;;;0.87;;
76063;SDS011;64762;52.006;8.424;2022-12-29T01:32:14;1.80;;;0.90;;
76063;SDS011;64762;52.006;8.424;2022-12-29T01:34:40;1.83;;;0.80;;
76063;SDS011;64762;52.006;8.424;2022-12-29T01:37:05;2.97;;;0.90;;
76063;SDS011;64762;52.006;8.424;2022-12-29T01:39:30;2.73;;;0.83;;
76063;SDS011;64762;52.006;8.424;2022-12-29T01:41:55;2.07;;;0.67;;
76063;SDS011;64762;52.006;8.424;2022-12-29T01:47:20;1.88;;;0.88;;
76063;SDS011;64762;52.006;8.424;2022-12-29T01:49:55;1.85;;;0.80;;
76063;SDS011;64762;52.006;8.424;2022-12-29T01:52:22;1.33;;;0.65;;
76063;SDS011;64762;52.006;8.424;2022-12-29T01:54:50;2.20;;;0.80;;
76063;SDS011;64762;52.006;8.424;2022-12-29T01:57:20;2.17;;;1.05;;
76063;SDS011;64762;52.006;8.424;2022-12-29T01:59:49;3.03;;;0.75;;
76063;SDS011;64762;52.006;8.424;2022-12-29T02:02:18;1.83;;;0.73;;
76063;SDS011;64762;52.006;8.424;2022-12-29T02:04:43;2.63;;;0.70;;
76063;SDS011;64762;52.006;8.424;2022-12-29T02:07:10;1.92;;;0.65;;
76063;SDS011;64762;52.006;8.424;2022-12-29T02:09:40;1.45;;;0.55;;
76063;SDS011;64762;52.006;8.424;2022-12-29T02:12:06;1.65;;;0.63;;
76063;SDS011;64762;52.006;8.424;2022-12-29T02:20:52;1.63;;;0.70;;
76063;SDS011;64762;52.006;8.424;2022-12-29T02:24:03;1.52;;;0.57;;
76063;SDS011;64762;52.006;8.424;2022-12-29T02:29:50;1.98;;;0.50;;
76063;SDS011;64762;52.006;8.424;2022-12-29T02:35:10;1.67;;;0.60;;
76063;SDS011;64762;52.006;8.424;2022-12-29T02:37:54;2.20;;;0.70;;
76063;SDS011;64762;52.006;8.424;2022-12-29T02:40:25;1.25;;;0.60;;
76063;SDS011;64762;52.006;8.424;2022-12-29T02:42:59;1.77;;;0.63;;
76063;SDS011;64762;52.006;8.424;2022-12-29T02:48:14;2.53;;;0.43;;
76063;SDS011;64762;52.006;8.424;2022-12-29T02:53:23;1.75;;;0.60;;
76063;SDS011;64762;52.006;8.424;2022-12-29T02:56:08;1.38;;;0.60;;
76063;SDS011;64762;52.006;8.424;2022-12-29T02:58:34;1.30;;;0.50;;
76063;SDS011;64762;52.006;8.424;2022-12-29T03:09:31;0.70;;;0.40;;
76063;SDS011;64762;52.006;8.424;2022-12-29T03:12:46;1.25;;;0.50;;
76063;SDS011;64762;52.006;8.424;2022-12-29T03:15:18;0.85;;;0.40;;
76063;SDS011;64762;52.006;8.424;2022-12-29T03:18:25;0.82;;;0.30;;
76063;SDS011;64762;52.006;8.424;2022-12-29T03:21:10;1.40;;;0.30;;
76063;SDS011;64762;52.006;8.424;2022-12-29T03:23:39;1.27;;;0.43;;
76063;SDS011;64762;52.006;8.424;2022-12-29T03:26:08;0.38;;;0.30;;
76063;SDS011;64762;52.006;8.424;2022-12-29T03:28:39;1.23;;;0.47;;
76063;SDS011;64762;52.006;8.424;2022-12-29T03:31:08;1.13;;;0.50;;
76063;SDS011;64762;52.006;8.424;2022-12-29T03:33:38;0.70;;;0.40;;
76063;SDS011;64762;52.006;8.424;2022-12-29T03:36:04;1.25;;;0.32;;
76063;SDS011;64762;52.006;8.424;2022-12-29T03:38:40;1.30;;;0.50;;
76063;SDS011;64762;52.006;8.424;2022-12-29T03:41:17;0.52;;;0.20;;
76063;SDS011;64762;52.006;8.424;2022-12-29T03:43:45;0.90;;;0.40;;
76063;SDS011;64762;52.006;8.424;2022-12-29T03:46:11;0.90;;;0.40;;
76063;SDS011;64762;52.006;8.424;2022-12-29T03:48:36;0.73;;;0.33;;
76063;SDS011;64762;52.006;8.424;2022-12-29T03:51:01;1.07;;;0.40;;
76063;SDS011;64762;52.006;8.424;2022-12-29T03:53:27;0.47;;;0.33;;
76063;SDS011;64762;52.006;8.424;2022-12-29T03:55:52;0.57;;;0.27;;
76063;SDS011;64762;52.006;8.424;2022-12-29T03:58:17;0.53;;;0.30;;
76063;SDS011;64762;52.006;8.424;2022-12-29T04:00:42;1.07;;;0.50;;
76063;SDS011;64762;52.006;8.424;2022-12-29T04:03:08;2.40;;;0.60;;
76063;SDS011;64762;52.006;8.424;2022-12-29T04:05:33;0.93;;;0.37;;
76063;SDS011;64762;52.006;8.424;2022-12-29T04:07:58;0.83;;;0.30;;
76063;SDS011;64762;52.006;8.424;2022-12-29T04:10:24;1.27;;;0.50;;
76063;SDS011;64762;52.006;8.424;2022-12-29T04:12:50;1.47;;;0.50;;
76063;SDS011;64762;52.006;8.424;2022-12-29T04:15:15;0.97;;;0.30;;
76063;SDS011;64762;52.006;8.424;2022-12-29T04:17:40;0.40;;;0.23;;
76063;SDS011;64762;52.006;8.424;2022-12-29T04:20:06;1.30;;;0.40;;
76063;SDS011;64762;52.006;8.424;2022-12-29T04:22:57;1.50;;;0.50;;
76063;SDS011;64762;52.006;8.424;2022-12-29T04:25:25;0.73;;;0.40;;
76063;SDS011;64762;52.006;8.424;2022-12-29T04:27:50;1.37;;;0.53;;
76063;SDS011;64762;52.006;8.424;2022-12-29T04:30:16;0.90;;;0.33;;
76063;SDS011;64762;52.006;8.424;2022-12-29T04:32:41;2.47;;;0.40;;
76063;SDS011;64762;52.006;8.424;2022-12-29T04:35:06;0.97;;;0.47;;
76063;SDS011;64762;52.006;8.424;2022-12-29T04:37:32;0.95;;;0.30;;
76063;SDS011;64762;52.006;8.424;2022-12-29T04:39:57;1.43;;;0.43;;
76063;SDS011;64762;52.006;8.424;2022-12-29T04:42:22;1.43;;;0.50;;
76063;SDS011;64762;52.006;8.424;2022-12-29T04:44:48;1.37;;;0.37;;
76063;SDS011;64762;52.006;8.424;2022-12-29T04:47:13;1.87;;;0.50;;
76063;SDS011;64762;52.006;8.424;2022-12-29T04:49:38;1.53;;;0.50;;
76063;SDS011;64762;52.006;8.424;2022-12-29T04:52:04;1.20;;;0.43;;
76063;SDS011;64762;52.006;8.424;2022-12-29T04:54:29;2.20;;;0.60;;
76063;SDS011;64762;52.006;8.424;2022-12-29T04:56:54;1.10;;;0.47;;
76063;SDS011;64762;52.006;8.424;2022-12-29T04:59:19;1.30;;;0.50;;
76063;SDS011;64762;52.006;8.424;2022-12-29T05:01:45;1.23;;;0.53;;
76063;SDS011;64762;52.006;8.424;2022-12-29T05:04:10;1.63;;;0.63;;
76063;SDS011;64762;52.006;8.424;2022-12-29T05:06:35;2.13;;;0.50;;
76063;SDS011;64762;52.006;8.424;2022-12-29T05:09:00;1.50;;;0.60;;
76063;SDS011;64762;52.006;8.424;2022-12-29T05:14:48;0.98;;;0.32;;
76063;SDS011;64762;52.006;8.424;2022-12-29T05:17:13;1.53;;;0.40;;
76063;SDS011;64762;52.006;8.424;2022-12-29T05:19:38;1.30;;;0.47;;
76063;SDS011;64762;52.006;8.424;2022-12-29T05:22:03;1.10;;;0.50;;
76063;SDS011;64762;52.006;8.424;2022-12-29T05:24:29;0.85;;;0.40;;
76063;SDS011;64762;52.006;8.424;2022-12-29T05:26:54;2.23;;;0.40;;
76063;SDS011;64762;52.006;8.424;2022-12-29T05:29:19;1.30;;;0.27;;
76063;SDS011;64762;52.006;8.424;2022-12-29T05:31:45;1.10;;;0.40;;
76063;SDS011;64762;52.006;8.424;2022-12-29T05:34:10;0.77;;;0.30;;
76063;SDS011;64762;52.006;8.424;2022-12-29T05:36:36;1.05;;;0.40;;
76063;SDS011;64762;52.006;8.424;2022-12-29T05:39:01;2.03;;;0.57;;
76063;SDS011;64762;52.006;8.424;2022-12-29T05:41:27;0.98;;;0.50;;
76063;SDS011;64762;52.006;8.424;2022-12-29T05:43:52;1.45;;;0.70;;
76063;SDS011;64762;52.006;8.424;2022-12-29T05:46:17;0.90;;;0.40;;
76063;SDS011;64762;52.006;8.424;2022-12-29T05:48:43;1.27;;;0.43;;
76063;SDS011;64762;52.006;8.424;2022-12-29T05:51:08;2.23;;;0.37;;
76063;SDS011;64762;52.006;8.424;2022-12-29T05:53:33;1.73;;;0.40;;
76063;SDS011;64762;52.006;8.424;2022-12-29T05:55:59;1.30;;;0.50;;
76063;SDS011;64762;52.006;8.424;2022-12-29T05:58:24;1.30;;;0.50;;
76063;SDS011;64762;52.006;8.424;2022-12-29T06:00:49;0.57;;;0.30;;
76063;SDS011;64762;52.006;8.424;2022-12-29T06:03:14;2.23;;;0.50;;
76063;SDS011;64762;52.006;8.424;2022-12-29T06:05:40;1.50;;;0.50;;
76063;SDS011;64762;52.006;8.424;2022-12-29T06:08:05;1.47;;;0.50;;
76063;SDS011;64762;52.006;8.424;2022-12-29T06:10:30;2.50;;;0.93;;
76063;SDS011;64762;52.006;8.424;2022-12-29T06:12:56;2.40;;;0.63;;
76063;SDS011;64762;52.006;8.424;2022-12-29T06:15:21;2.03;;;0.67;;
76063;SDS011;64762;52.006;8.424;2022-12-29T06:17:47;1.00;;;0.45;;
76063;SDS011;64762;52.006;8.424;2022-12-29T06:20:12;3.73;;;1.13;;
76063;SDS011;64762;52.006;8.424;2022-12-29T06:22:37;1.33;;;0.20;;
76063;SDS011;64762;52.006;8.424;2022-12-29T06:25:03;1.03;;;0.40;;
76063;SDS011;64762;52.006;8.424;2022-12-29T06:27:28;2.33;;;0.43;;
76063;SDS011;64762;52.006;8.424;2022-12-29T06:29:54;1.00;;;0.30;;
76063;SDS011;64762;52.006;8.424;2022-12-29T06:32:19;1.55;;;0.43;;
76063;SDS011;64762;52.006;8.424;2022-12-29T06:34:44;1.20;;;0.60;;
76063;SDS011;64762;52.006;8.424;2022-12-29T06:37:10;1.07;;;0.40;;
76063;SDS011;64762;52.006;8.424;2022-12-29T06:39:36;2.08;;;0.50;;
76063;SDS011;64762;52.006;8.424;2022-12-29T06:42:01;1.83;;;0.40;;
76063;SDS011;64762;52.006;8.424;2022-12-29T06:44:26;1.43;;;0.40;;
76063;SDS011;64762;52.006;8.424;2022-12-29T06:46:52;1.83;;;0.60;;
76063;SDS011;64762;52.006;8.424;2022-12-29T06:49:17;2.83;;;0.50;;
76063;SDS011;64762;52.006;8.424;2022-12-29T06:51:42;1.30;;;0.40;;
76063;SDS011;64762;52.006;8.424;2022-12-29T06:54:08;1.90;;;0.70;;
76063;SDS011;64762;52.006;8.424;2022-12-29T06:56:34;3.05;;;0.60;;
76063;SDS011;64762;52.006;8.424;2022-12-29T06:58:59;2.77;;;0.83;;
76063;SDS011;64762;52.006;8.424;2022-12-29T07:01:28;4.05;;;0.82;;
76063;SDS011;64762;52.006;8.424;2022-12-29T07:03:53;2.40;;;0.70;;
76063;SDS011;64762;52.006;8.424;2022-12-29T07:06:18;2.00;;;0.70;;
76063;SDS011;64762;52.006;8.424;2022-12-29T07:08:44;3.90;;;0.90;;
76063;SDS011;64762;52.006;8.424;2022-12-29T07:11:09;2.53;;;0.98;;
76063;SDS011;64762;52.006;8.424;2022-12-29T07:13:35;1.73;;;0.70;;
76063;SDS011;64762;52.006;8.424;2022-12-29T07:16:04;2.65;;;0.80;;
76063;SDS011;64762;52.006;8.424;2022-12-29T07:18:40;2.97;;;0.90;;
76063;SDS011;64762;52.006;8.424;2022-12-29T07:21:08;3.65;;;1.10;;
76063;SDS011;64762;52.006;8.424;2022-12-29T07:23:34;2.20;;;0.90;;
76063;SDS011;64762;52.006;8.424;2022-12-29T07:26:00;5.43;;;1.33;;
76063;SDS011;64762;52.006;8.424;2022-12-29T07:28:26;1.83;;;0.70;;
76063;SDS011;64762;52.006;8.424;2022-12-29T07:30:51;4.00;;;0.83;;
76063;SDS011;64762;52.006;8.424;2022-12-29T07:33:16;1.87;;;0.77;;
76063;SDS011;64762;52.006;8.424;2022-12-29T07:35:42;1.97;;;0.70;;
76063;SDS011;64762;52.006;8.424;2022-12-29T07:38:07;2.70;;;0.80;;
76063;SDS011;64762;52.006;8.424;2022-12-29T07:40:32;7.23;;;0.90;;
76063;SDS011;64762;52.006;8.424;2022-12-29T07:42:58;1.90;;;0.70;;
76063;SDS011;64762;52.006;8.424;2022-12-29T07:45:23;1.87;;;0.87;;
76063;SDS011;64762;52.006;8.424;2022-12-29T07:47:49;2.70;;;0.90;;
76063;SDS011;64762;52.006;8.424;2022-12-29T07:50:14;6.05;;;1.10;;
76063;SDS011;64762;52.006;8.424;2022-12-29T07:52:39;1.87;;;0.60;;
76063;SDS011;64762;52.006;8.424;2022-12-29T07:55:05;3.20;;;0.70;;
76063;SDS011;64762;52.006;8.424;2022-12-29T07:57:30;3.80;;;0.80;;
76063;SDS011;64762;52.006;8.424;2022-12-29T07:59:56;4.10;;;0.90;;
76063;SDS011;64762;52.006;8.424;2022-12-29T08:02:21;2.83;;;0.80;;
76063;SDS011;64762;52.006;8.424;2022-12-29T08:04:46;4.70;;;0.90;;
76063;SDS011;64762;52.006;8.424;2022-12-29T08:07:12;3.97;;;0.90;;
76063;SDS011;64762;52.006;8.424;2022-12-29T08:09:37;3.17;;;0.80;;
76063;SDS011;64762;52.006;8.424;2022-12-29T08:12:02;2.40;;;1.00;;
76063;SDS011;64762;52.006;8.424;2022-12-29T08:14:28;4.23;;;1.07;;
76063;SDS011;64762;52.006;8.424;2022-12-29T08:16:53;2.47;;;0.70;;
76063;SDS011;64762;52.006;8.424;2022-12-29T08:19:18;2.90;;;1.00;;
76063;SDS011;64762;52.006;8.424;2022-12-29T08:21:43;3.57;;;0.93;;
76063;SDS011;64762;52.006;8.424;2022-12-29T08:24:09;4.67;;;0.90;;
76063;SDS011;64762;52.006;8.424;2022-12-29T08:26:34;2.40;;;0.90;;
76063;SDS011;64762;52.006;8.424;2022-12-29T08:29:00;2.85;;;0.90;;
76063;SDS011;64762;52.006;8.424;2022-12-29T08:31:25;2.13;;;0.87;;
76063;SDS011;64762;52.006;8.424;2022-12-29T08:33:50;2.27;;;0.83;;
76063;SDS011;64762;52.006;8.424;2022-12-29T08:36:16;1.80;;;0.70;;
76063;SDS011;64762;52.006;8.424;2022-12-29T08:38:41;2.83;;;0.93;;
76063;SDS011;64762;52.006;8.424;2022-12-29T08:41:07;3.85;;;0.77;;
76063;SDS011;64762;52.006;8.424;2022-12-29T08:43:32;2.87;;;1.20;;
76063;SDS011;64762;52.006;8.424;2022-12-29T08:45:58;2.60;;;0.90;;
76063;SDS011;64762;52.006;8.424;2022-12-29T08:48:23;4.25;;;0.80;;
76063;SDS011;64762;52.006;8.424;2022-12-29T08:50:53;3.13;;;0.98;;
76063;SDS011;64762;52.006;8.424;2022-12-29T08:53:18;5.63;;;1.30;;
76063;SDS011;64762;52.006;8.424;2022-12-29T08:55:47;2.50;;;0.80;;
76063;SDS011;64762;52.006;8.424;2022-12-29T08:58:20;4.57;;;1.02;;
76063;SDS011;64762;52.006;8.424;2022-12-29T09:00:45;4.23;;;0.90;;
76063;SDS011;64762;52.006;8.424;2022-12-29T09:03:11;2.40;;;0.98;;
76063;SDS011;64762;52.006;8.424;2022-12-29T09:05:36;4.10;;;1.10;;
76063;SDS011;64762;52.006;8.424;2022-12-29T09:08:02;4.07;;;1.02;;
76063;SDS011;64762;52.006;8.424;2022-12-29T09:10:27;3.88;;;0.93;;
76063;SDS011;64762;52.006;8.424;2022-12-29T09:12:52;2.67;;;1.00;;
76063;SDS011;64762;52.006;8.424;2022-12-29T09:15:18;2.87;;;1.10;;
76063;SDS011;64762;52.006;8.424;2022-12-29T09:17:43;2.17;;;0.87;;
76063;SDS011;64762;52.006;8.424;2022-12-29T09:20:09;2.38;;;1.00;;
76063;SDS011;64762;52.006;8.424;2022-12-29T09:22:36;3.55;;;1.10;;
76063;SDS011;64762;52.006;8.424;2022-12-29T09:25:01;5.05;;;0.90;;
76063;SDS011;64762;52.006;8.424;2022-12-29T09:27:27;3.17;;;0.90;;
76063;SDS011;64762;52.006;8.424;2022-12-29T09:29:52;5.53;;;1.10;;
76063;SDS011;64762;52.006;8.424;2022-12-29T09:32:17;5.50;;;1.30;;
76063;SDS011;64762;52.006;8.424;2022-12-29T09:34:43;5.43;;;1.07;;
76063;SDS011;64762;52.006;8.424;2022-12-29T09:37:08;4.37;;;1.50;;
76063;SDS011;64762;52.006;8.424;2022-12-29T09:39:33;4.57;;;1.00;;
76063;SDS011;64762;52.006;8.424;2022-12-29T09:42:08;3.37;;;0.90;;
76063;SDS011;64762;52.006;8.424;2022-12-29T09:44:48;3.40;;;1.10;;
76063;SDS011;64762;52.006;8.424;2022-12-29T09:47:26;6.47;;;1.15;;
76063;SDS011;64762;52.006;8.424;2022-12-29T09:49:53;3.17;;;1.20;;
76063;SDS011;64762;52.006;8.424;2022-12-29T09:52:21;3.22;;;1.00;;
76063;SDS011;64762;52.006;8.424;2022-12-29T10:00:17;2.95;;;0.85;;
76063;SDS011;64762;52.006;8.424;2022-12-29T10:02:46;5.88;;;1.10;;
76063;SDS011;64762;52.006;8.424;2022-12-29T10:05:30;5.07;;;0.95;;
76063;SDS011;64762;52.006;8.424;2022-12-29T10:15:44;4.68;;;0.93;;
76063;SDS011;64762;52.006;8.424;2022-12-29T10:18:36;4.57;;;1.15;;
76063;SDS011;64762;52.006;8.424;2022-12-29T10:23:51;6.28;;;1.58;;
76063;SDS011;64762;52.006;8.424;2022-12-29T10:26:18;5.93;;;1.30;;
76063;SDS011;64762;52.006;8.424;2022-12-29T10:28:53;3.55;;;0.90;;
76063;SDS011;64762;52.006;8.424;2022-12-29T10:31:23;3.53;;;1.17;;
76063;SDS011;64762;52.006;8.424;2022-12-29T10:33:51;4.55;;;1.02;;
76063;SDS011;64762;52.006;8.424;2022-12-29T10:36:34;4.57;;;1.20;;
76063;SDS011;64762;52.006;8.424;2022-12-29T10:44:36;5.30;;;1.38;;
76063;SDS011;64762;52.006;8.424;2022-12-29T10:47:21;4.10;;;1.17;;
76063;SDS011;64762;52.006;8.424;2022-12-29T10:49:49;3.20;;;0.80;;
76063;SDS011;64762;52.006;8.424;2022-12-29T10:52:15;4.13;;;0.97;;
76063;SDS011;64762;52.006;8.424;2022-12-29T10:57:24;7.72;;;1.50;;
76063;SDS011;64762;52.006;8.424;2022-12-29T11:00:21;6.93;;;1.17;;
76063;SDS011;64762;52.006;8.424;2022-12-29T11:05:27;4.53;;;1.45;;
76063;SDS011;64762;52.006;8.424;2022-12-29T11:07:59;6.05;;;1.45;;
76063;SDS011;64762;52.006;8.424;2022-12-29T11:10:45;3.80;;;0.80;;
76063;SDS011;64762;52.006;8.424;2022-12-29T11:13:30;4.05;;;1.02;;
76063;SDS011;64762;52.006;8.424;2022-12-29T11:15:57;3.85;;;1.00;;
76063;SDS011;64762;52.006;8.424;2022-12-29T11:18:25;4.78;;;1.10;;
76063;SDS011;64762;52.006;8.424;2022-12-29T11:20:55;3.42;;;0.85;;
76063;SDS011;64762;52.006;8.424;2022-12-29T11:23:31;2.85;;;0.82;;
76063;SDS011;64762;52.006;8.424;2022-12-29T11:26:16;4.82;;;0.80;;
76063;SDS011;64762;52.006;8.424;2022-12-29T11:29:19;4.18;;;1.30;;
76063;SDS011;64762;52.006;8.424;2022-12-29T11:31:40;7.35;;;1.27;;
76063;SDS011;64762;52.006;8.424;2022-12-29T11:34:23;4.63;;;1.05;;
76063;SDS011;64762;52.006;8.424;2022-12-29T11:37:02;7.95;;;1.08;;
76063;SDS011;64762;52.006;8.424;2022-12-29T11:42:23;3.95;;;1.48;;
76063;SDS011;64762;52.006;8.424;2022-12-29T11:44:55;5.80;;;1.80;;
76063;SDS011;64762;52.006;8.424;2022-12-29T11:47:41;3.00;;;0.77;;
76063;SDS011;64762;52.006;8.424;2022-12-29T11:50:08;3.55;;;0.90;;
76063;SDS011;64762;52.006;8.424;2022-12-29T11:52:45;4.85;;;0.80;;
76063;SDS011;64762;52.006;8.424;2022-12-29T11:55:18;3.03;;;1.00;;
76063;SDS011;64762;52.006;8.424;2022-12-29T11:57:48;5.00;;;1.00;;
76063;SDS011;64762;52.006;8.424;2022-12-29T12:00:19;3.45;;;0.80;;
76063;SDS011;64762;52.006;8.424;2022-12-29T12:02:48;3.80;;;0.85;;
76063;SDS011;64762;52.006;8.424;2022-12-29T12:11:10;5.00;;;1.50;;
76063;SDS011;64762;52.006;8.424;2022-12-29T12:13:47;4.78;;;1.05;;
76063;SDS011;64762;52.006;8.424;2022-12-29T12:16:30;3.20;;;1.00;;
76063;SDS011;64762;52.006;8.424;2022-12-29T12:21:54;4.00;;;0.82;;
76063;SDS011;64762;52.006;8.424;2022-12-29T12:27:12;3.33;;;0.98;;
76063;SDS011;64762;52.006;8.424;2022-12-29T12:29:43;2.38;;;0.75;;
76063;SDS011;64762;52.006;8.424;2022-12-29T12:32:17;4.43;;;1.13;;
76063;SDS011;64762;52.006;8.424;2022-12-29T12:34:45;7.18;;;1.55;;
76063;SDS011;64762;52.006;8.424;2022-12-29T12:37:15;5.50;;;0.98;;
76063;SDS011;64762;52.006;8.424;2022-12-29T12:40:18;3.78;;;0.95;;
76063;SDS011;64762;52.006;8.424;2022-12-29T12:43:14;7.72;;;1.13;;
76063;SDS011;64762;52.006;8.424;2022-12-29T12:54:52;6.45;;;1.17;;
76063;SDS011;64762;52.006;8.424;2022-12-29T12:57:11;5.32;;;1.40;;
76063;SDS011;64762;52.006;8.424;2022-12-29T13:02:34;5.78;;;1.73;;
76063;SDS011;64762;52.006;8.424;2022-12-29T13:07:47;6.47;;;1.30;;
76063;SDS011;64762;52.006;8.424;2022-12-29T13:10:41;5.90;;;1.27;;
76063;SDS011;64762;52.006;8.424;2022-12-29T13:13:30;3.53;;;1.30;;
76063;SDS011;64762;52.006;8.424;2022-12-29T13:16:13;3.63;;;1.10;;
76063;SDS011;64762;52.006;8.424;2022-12-29T13:18:59;3.90;;;1.17;;
76063;SDS011;64762;52.006;8.424;2022-12-29T13:21:37;5.60;;;1.38;;
76063;SDS011;64762;52.006;8.424;2022-12-29T13:24:13;6.75;;;1.20;;
76063;SDS011;64762;52.006;8.424;2022-12-29T13:26:49;5.60;;;1.55;;
76063;SDS011;64762;52.006;8.424;2022-12-29T13:29:17;6.18;;;1.20;;
76063;SDS011;64762;52.006;8.424;2022-12-29T13:34:23;4.18;;;1.40;;
76063;SDS011;64762;52.006;8.424;2022-12-29T13:37:08;3.28;;;0.70;;
76063;SDS011;64762;52.006;8.424;2022-12-29T13:42:17;4.93;;;1.75;;
76063;SDS011;64762;52.006;8.424;2022-12-29T13:44:48;5.50;;;1.83;;
76063;SDS011;64762;52.006;8.424;2022-12-29T13:49:52;10.85;;;2.97;;
76063;SDS011;64762;52.006;8.424;2022-12-29T13:52:21;7.80;;;1.80;;
76063;SDS011;64762;52.006;8.424;2022-12-29T13:55:17;6.30;;;1.85;;
76063;SDS011;64762;52.006;8.424;2022-12-29T13:57:48;5.40;;;1.60;;
76063;SDS011;64762;52.006;8.424;2022-12-29T14:00:27;7.38;;;1.50;;
76063;SDS011;64762;52.006;8.424;2022-12-29T14:06:04;6.82;;;2.25;;
76063;SDS011;64762;52.006;8.424;2022-12-29T14:08:37;6.15;;;1.60;;
76063;SDS011;64762;52.006;8.424;2022-12-29T14:11:06;8.57;;;1.97;;
76063;SDS011;64762;52.006;8.424;2022-12-29T14:13:34;6.75;;;1.30;;
76063;SDS011;64762;52.006;8.424;2022-12-29T14:16:06;8.35;;;1.58;;
76063;SDS011;64762;52.006;8.424;2022-12-29T14:18:32;4.50;;;1.30;;
76063;SDS011;64762;52.006;8.424;2022-12-29T14:21:10;6.25;;;1.38;;
76063;SDS011;64762;52.006;8.424;2022-12-29T14:23:44;6.10;;;1.40;;
76063;SDS011;64762;52.006;8.424;2022-12-29T14:26:18;7.13;;;1.65;;
76063;SDS011;64762;52.006;8.424;2022-12-29T14:29:15;6.47;;;1.23;;
76063;SDS011;64762;52.006;8.424;2022-12-29T14:31:50;3.85;;;0.93;;
76063;SDS011;64762;52.006;8.424;2022-12-29T14:39:32;7.45;;;1.20;;
76063;SDS011;64762;52.006;8.424;2022-12-29T14:44:34;7.00;;;1.40;;
76063;SDS011;64762;52.006;8.424;2022-12-29T14:47:35;5.30;;;1.38;;
76063;SDS011;64762;52.006;8.424;2022-12-29T14:52:58;4.03;;;1.48;;
76063;SDS011;64762;52.006;8.424;2022-12-29T14:55:41;6.00;;;1.30;;
76063;SDS011;64762;52.006;8.424;2022-12-29T14:58:14;5.97;;;1.42;;
76063;SDS011;64762;52.006;8.424;2022-12-29T15:00:43;3.83;;;1.27;;
76063;SDS011;64762;52.006;8.424;2022-12-29T15:03:23;6.18;;;1.88;;
76063;SDS011;64762;52.006;8.424;2022-12-29T15:08:19;7.38;;;1.42;;
76063;SDS011;64762;52.006;8.424;2022-12-29T15:10:48;5.25;;;1.05;;
76063;SDS011;64762;52.006;8.424;2022-12-29T15:13:23;6.15;;;1.40;;
76063;SDS011;64762;52.006;8.424;2022-12-29T15:15:50;5.57;;;1.48;;
76063;SDS011;64762;52.006;8.424;2022-12-29T15:21:03;5.68;;;1.65;;
76063;SDS011;64762;52.006;8.424;2022-12-29T15:23:31;6.40;;;1.70;;
76063;SDS011;64762;52.006;8.424;2022-12-29T15:25:59;7.88;;;2.20;;
76063;SDS011;64762;52.006;8.424;2022-12-29T15:28:27;4.63;;;1.23;;
76063;SDS011;64762;52.006;8.424;2022-12-29T15:31:02;5.75;;;1.40;;
76063;SDS011;64762;52.006;8.424;2022-12-29T15:33:29;6.63;;;1.23;;
76063;SDS011;64762;52.006;8.424;2022-12-29T15:35:55;7.38;;;1.30;;
76063;SDS011;64762;52.006;8.424;2022-12-29T15:40:51;6.25;;;1.40;;
76063;SDS011;64762;52.006;8.424;2022-12-29T15:46:10;5.65;;;1.70;;
76063;SDS011;64762;52.006;8.424;2022-12-29T15:48:36;5.07;;;1.38;;
76063;SDS011;64762;52.006;8.424;2022-12-29T15:51:03;6.50;;;1.42;;
76063;SDS011;64762;52.006;8.424;2022-12-29T15:53:32;5.57;;;1.70;;
76063;SDS011;64762;52.006;8.424;2022-12-29T15:55:59;6.00;;;1.27;;
76063;SDS011;64762;52.006;8.424;2022-12-29T15:58:28;5.82;;;1.40;;
76063;SDS011;64762;52.006;8.424;2022-12-29T16:00:56;7.38;;;1.63;;
76063;SDS011;64762;52.006;8.424;2022-12-29T16:03:25;3.50;;;1.20;;
76063;SDS011;64762;52.006;8.424;2022-12-29T16:05:53;5.53;;;1.60;;
76063;SDS011;64762;52.006;8.424;2022-12-29T16:08:29;6.40;;;1.60;;
76063;SDS011;64762;52.006;8.424;2022-12-29T16:10:58;3.28;;;1.08;;
76063;SDS011;64762;52.006;8.424;2022-12-29T16:15:59;4.47;;;1.70;;
76063;SDS011;64762;52.006;8.424;2022-12-29T16:20:55;3.72;;;1.30;;
76063;SDS011;64762;52.006;8.424;2022-12-29T16:23:28;7.63;;;1.40;;
76063;SDS011;64762;52.006;8.424;2022-12-29T16:25:54;7.28;;;1.40;;
76063;SDS011;64762;52.006;8.424;2022-12-29T16:28:21;4.97;;;1.40;;
76063;SDS011;64762;52.006;8.424;2022-12-29T16:41:51;10.63;;;2.08;;
76063;SDS011;64762;52.006;8.424;2022-12-29T16:44:18;6.90;;;1.48;;
76063;SDS011;64762;52.006;8.424;2022-12-29T16:47:05;6.43;;;1.52;;
76063;SDS011;64762;52.006;8.424;2022-12-29T16:49:43;4.90;;;1.10;;
76063;SDS011;64762;52.006;8.424;2022-12-29T16:52:33;5.32;;;1.20;;
76063;SDS011;64762;52.006;8.424;2022-12-29T16:54:59;4.18;;;0.98;;
76063;SDS011;64762;52.006;8.424;2022-12-29T16:57:30;5.28;;;1.65;;
76063;SDS011;64762;52.006;8.424;2022-12-29T16:59:59;7.43;;;1.23;;
76063;SDS011;64762;52.006;8.424;2022-12-29T17:02:26;4.15;;;1.42;;
76063;SDS011;64762;52.006;8.424;2022-12-29T17:04:53;6.47;;;1.40;;
76063;SDS011;64762;52.006;8.424;2022-12-29T17:07:25;7.75;;;1.25;;
76063;SDS011;64762;52.006;8.424;2022-12-29T17:09:51;4.95;;;1.15;;
76063;SDS011;64762;52.006;8.424;2022-12-29T17:12:19;4.10;;;1.23;;
76063;SDS011;64762;52.006;8.424;2022-12-29T17:14:52;6.70;;;1.83;;
76063;SDS011;64762;52.006;8.424;2022-12-29T17:17:29;4.80;;;1.95;;
76063;SDS011;64762;52.006;8.424;2022-12-29T17:20:20;6.90;;;3.20;;
76063;SDS011;64762;52.006;8.424;2022-12-29T17:22:47;10.10;;;2.78;;